Krisjanis Valdemars — V7LI9 — position and weather

sailwx.info

Track history (hours):
 
Tides and Currents Weather Stations Pressure Air Temp Water Temp Dewpoint Dewpoint Depression Visibility Wind Speed Wind Dir Waves Ship Positions

Krisjanis Valdemars

Last reported at 2015-Apr-01 07:27 UTC. Time now 2015-Apr-01 08:04 UTC.
Position N 51°55' E 004°12'.

Length 183 m; draft 10.4 m.

Type: Tanker. MMSI: 538002757.

Date/timePositionNaut miles runAvg speedWind from/ knotsBaromVisibWave heightAir tempDewpointWater temp
2015-Apr-01 07:27N 51°55' E 004°12'0 0.0
2015-Apr-01 06:33N 51°55' E 004°12'0 0.0
2015-Apr-01 05:33N 51°55' E 004°13'0 0.0
2015-Apr-01 04:33N 51°55' E 004°12'0 0.0
2015-Apr-01 03:33N 51°55' E 004°13'0 0.0
2015-Apr-01 02:30N 51°55' E 004°13'0 0.0
2015-Apr-01 01:33N 51°55' E 004°12'0 0.0
2015-Apr-01 00:33N 51°55' E 004°12'0 0.0
2015-Mar-31 23:33N 51°55' E 004°12'0 0.0
2015-Mar-31 22:33N 51°55' E 004°12'0 0.0
2015-Mar-31 21:33N 51°55' E 004°12'0 0.0
2015-Mar-31 20:24N 51°55' E 004°12'0 0.0
2015-Mar-31 19:33N 51°55' E 004°13'0 0.0
2015-Mar-31 18:33N 51°55' E 004°13'0 0.0
2015-Mar-31 17:18N 51°55' E 004°13'0 0.0
2015-Mar-31 16:24N 51°55' E 004°12'0 0.0
2015-Mar-31 15:24N 51°55' E 004°13'0 0.0
2015-Mar-31 14:33N 51°55' E 004°12'0 0.0
2015-Mar-31 13:33N 51°55' E 004°12'0 0.0
2015-Mar-31 12:33N 51°55' E 004°13'0 0.0
2015-Mar-31 11:33N 51°55' E 004°12'0 0.0
2015-Mar-31 10:33N 51°55' E 004°12'0 0.0
2015-Mar-31 09:33N 51°55' E 004°13'0 0.0
2015-Mar-31 08:27N 51°55' E 004°13'0 0.0
2015-Mar-31 07:33N 51°55' E 004°13'0 0.0
2015-Mar-31 06:15N 51°55' E 004°12'0 0.0
2015-Mar-31 05:30N 51°55' E 004°12'0 0.0
2015-Mar-31 04:33N 51°55' E 004°13'0 0.0
2015-Mar-31 03:33N 51°55' E 004°12'0 0.0
2015-Mar-31 02:27N 51°55' E 004°12'0 0.0
2015-Mar-31 01:27N 51°55' E 004°12'0 0.0
2015-Mar-31 00:27N 51°55' E 004°13'0 0.0
2015-Mar-30 23:33N 51°55' E 004°12'0 0.0
2015-Mar-30 22:30N 51°55' E 004°13'0 0.0
2015-Mar-30 21:33N 51°55' E 004°12'0 0.0
2015-Mar-30 20:33N 51°55' E 004°13'0 0.0
2015-Mar-30 19:24N 51°55' E 004°13'0 0.0
2015-Mar-30 18:30N 51°55' E 004°13'0 0.4
2015-Mar-30 17:33N 51°55' E 004°12'6 6.4
2015-Mar-30 16:33N 51°59' E 004°04'9 9.0
2015-Mar-30 15:33N 51°60' E 003°49'1210.9
2015-Mar-30 14:28N 51°57' E 003°31'9 9.2
2015-Mar-30 13:28N 51°54' E 003°16'3512.0
2015-Mar-30 10:33N 51°37' E 002°26'1312.9
2015-Mar-30 09:33N 51°28' E 002°13'1111.1
2015-Mar-30 08:33N 51°17' E 002°07'1312.6
2015-Mar-30 07:34N 51°09' E 001°52'1313.2
2015-Mar-30 06:32N 51°00' E 001°36'10611.3
2015-Mar-29 21:09N 49°53' W 000°34'610.2
2015-Mar-29 20:33N 49°47' W 000°36'1111.1
2015-Mar-29 19:33N 49°38' W 000°27'1010.3
2015-Mar-29 18:33N 49°31' W 000°15'10 9.8
2015-Mar-29 17:33N 49°28' W 000°00'10 9.8
2015-Mar-29 16:33N 49°26' E 000°14'9 8.7
2015-Mar-29 15:33N 49°28' E 000°27'4 3.6
2015-Mar-29 14:33N 49°28' E 000°33'0 0.0
2015-Mar-29 13:28N 49°28' E 000°33'0 0.0
2015-Mar-29 12:25N 49°28' E 000°33'0 0.0
2015-Mar-29 11:28N 49°28' E 000°33'0 0.0
2015-Mar-29 10:31N 49°28' E 000°33'0 0.0
2015-Mar-29 09:22N 49°28' E 000°33'0 0.0
2015-Mar-29 08:31N 49°28' E 000°33'0 0.0
2015-Mar-29 07:31N 49°28' E 000°33'0 0.0
2015-Mar-29 06:28N 49°28' E 000°33'0 0.0
2015-Mar-29 05:31N 49°28' E 000°33'0 0.0
2015-Mar-29 04:31N 49°28' E 000°33'0 0.0
2015-Mar-29 03:31N 49°28' E 000°33'0 0.0
2015-Mar-29 02:31N 49°28' E 000°33'0 0.0
2015-Mar-29 01:31N 49°28' E 000°33'0 0.0
2015-Mar-29 00:31N 49°28' E 000°33'0 0.0
2015-Mar-28 23:31N 49°28' E 000°33'0 0.0
2015-Mar-28 22:31N 49°28' E 000°33'0 0.0
2015-Mar-28 21:31N 49°28' E 000°33'0 0.0
2015-Mar-28 20:31N 49°28' E 000°33'0 0.0
2015-Mar-28 19:28N 49°28' E 000°33'0 0.0
2015-Mar-28 18:31N 49°28' E 000°33'0 0.0
2015-Mar-28 17:22N 49°28' E 000°33'0 0.0
2015-Mar-28 16:31N 49°28' E 000°33'0 0.0
2015-Mar-28 15:31N 49°28' E 000°33'0 0.0
2015-Mar-28 14:31N 49°28' E 000°33'0 0.0
2015-Mar-28 13:31N 49°28' E 000°33'0 0.0
2015-Mar-28 12:28N 49°28' E 000°33'0 0.0
2015-Mar-28 11:31N 49°28' E 000°33'0 0.0
2015-Mar-28 10:28N 49°28' E 000°33'0 0.0
2015-Mar-28 09:31N 49°28' E 000°33'0 0.0
2015-Mar-28 08:28N 49°28' E 000°33'0 0.0
2015-Mar-28 07:31N 49°28' E 000°33'0 0.0
2015-Mar-28 06:31N 49°28' E 000°33'0 0.0
2015-Mar-28 05:31N 49°28' E 000°33'0 0.0
2015-Mar-28 04:31N 49°28' E 000°33'0 0.0
2015-Mar-28 03:31N 49°28' E 000°33'0 0.0
2015-Mar-28 02:31N 49°28' E 000°33'0 0.0
2015-Mar-28 01:31N 49°28' E 000°33'0 0.0
2015-Mar-28 00:32N 49°28' E 000°33'0 0.0
2015-Mar-27 23:31N 49°28' E 000°33'0 0.0
2015-Mar-27 22:31N 49°28' E 000°33'0 0.0
2015-Mar-27 21:31N 49°28' E 000°33'0 0.0
2015-Mar-27 20:31N 49°28' E 000°33'0 0.0
2015-Mar-27 19:31N 49°28' E 000°33'0 0.0
2015-Mar-27 18:25N 49°28' E 000°33'0 0.0
2015-Mar-27 17:31N 49°28' E 000°33'0 0.0
2015-Mar-27 16:28N 49°28' E 000°33'0 0.0
2015-Mar-27 15:31N 49°28' E 000°33'2 2.4
2015-Mar-27 14:33N 49°29' E 000°30'1110.7
2015-Mar-27 13:33N 49°26' E 000°14'1111.1
2015-Mar-27 12:33N 49°28' W 000°02'4 3.5
2015-Mar-27 11:28N 49°29' W 000°08'0 0.0
2015-Mar-27 10:31N 49°29' W 000°08'0 0.1
2015-Mar-27 09:31N 49°29' W 000°08'0 0.0
2015-Mar-27 08:31N 49°29' W 000°08'0 0.0
2015-Mar-27 07:31N 49°29' W 000°08'0 0.0
2015-Mar-27 06:31N 49°29' W 000°08'3 3.0
2015-Mar-27 05:33N 49°30' W 000°12'6 5.8
2015-Mar-27 04:34N 49°32' W 000°21'6 6.5
2015-Mar-27 03:33N 49°36' W 000°29'1110.6
2015-Mar-27 02:34N 49°42' W 000°42'1514.8
2015-Mar-27 01:33N 49°49' W 001°02'  
2015-Mar-22 16:29N 39°10' W 009°56'1112.3
2015-Mar-22 15:33N 38°59' W 009°56'1212.0
2015-Mar-22 14:33N 38°47' W 009°57'1111.3
2015-Mar-22 13:33N 38°36' W 009°54'1211.9
2015-Mar-22 12:33N 38°24' W 009°51'1212.4
2015-Mar-22 11:33N 38°12' W 009°47'1212.3
2015-Mar-22 10:33N 38°00' W 009°44'1212.3
2015-Mar-22 09:33N 37°48' W 009°40'1212.5
2015-Mar-22 08:33N 37°36' W 009°36'1212.3
2015-Mar-22 07:33N 37°24' W 009°33'  
Track history (hours):
 
Tides and Currents Weather Stations Pressure Air Temp Water Temp Dewpoint Dewpoint Depression Visibility Wind Speed Wind Dir Waves Ship Positions

Krisjanis Valdemars

Last reported at 2015-Apr-01 07:27 UTC. Time now 2015-Apr-01 08:04 UTC.
Position N 51°55' E 004°12'.

Length 183 m; draft 10.4 m.

Type: Tanker. MMSI: 538002757.

Date/timePositionNaut miles runAvg speedWind from/ knotsBaromVisibWave heightAir tempDewpointWater temp
2015-Apr-01 07:27N 51°55' E 004°12'0 0.0
2015-Apr-01 06:33N 51°55' E 004°12'0 0.0
2015-Apr-01 05:33N 51°55' E 004°13'0 0.0
2015-Apr-01 04:33N 51°55' E 004°12'0 0.0
2015-Apr-01 03:33N 51°55' E 004°13'0 0.0
2015-Apr-01 02:30N 51°55' E 004°13'0 0.0
2015-Apr-01 01:33N 51°55' E 004°12'0 0.0
2015-Apr-01 00:33N 51°55' E 004°12'0 0.0
2015-Mar-31 23:33N 51°55' E 004°12'0 0.0
2015-Mar-31 22:33N 51°55' E 004°12'0 0.0
2015-Mar-31 21:33N 51°55' E 004°12'0 0.0
2015-Mar-31 20:24N 51°55' E 004°12'0 0.0
2015-Mar-31 19:33N 51°55' E 004°13'0 0.0
2015-Mar-31 18:33N 51°55' E 004°13'0 0.0
2015-Mar-31 17:18N 51°55' E 004°13'0 0.0
2015-Mar-31 16:24N 51°55' E 004°12'0 0.0
2015-Mar-31 15:24N 51°55' E 004°13'0 0.0
2015-Mar-31 14:33N 51°55' E 004°12'0 0.0
2015-Mar-31 13:33N 51°55' E 004°12'0 0.0
2015-Mar-31 12:33N 51°55' E 004°13'0 0.0
2015-Mar-31 11:33N 51°55' E 004°12'0 0.0
2015-Mar-31 10:33N 51°55' E 004°12'0 0.0
2015-Mar-31 09:33N 51°55' E 004°13'0 0.0
2015-Mar-31 08:27N 51°55' E 004°13'0 0.0
2015-Mar-31 07:33N 51°55' E 004°13'0 0.0
2015-Mar-31 06:15N 51°55' E 004°12'0 0.0
2015-Mar-31 05:30N 51°55' E 004°12'0 0.0
2015-Mar-31 04:33N 51°55' E 004°13'0 0.0
2015-Mar-31 03:33N 51°55' E 004°12'0 0.0
2015-Mar-31 02:27N 51°55' E 004°12'0 0.0
2015-Mar-31 01:27N 51°55' E 004°12'0 0.0
2015-Mar-31 00:27N 51°55' E 004°13'0 0.0
2015-Mar-30 23:33N 51°55' E 004°12'0 0.0
2015-Mar-30 22:30N 51°55' E 004°13'0 0.0
2015-Mar-30 21:33N 51°55' E 004°12'0 0.0
2015-Mar-30 20:33N 51°55' E 004°13'0 0.0
2015-Mar-30 19:24N 51°55' E 004°13'0 0.0
2015-Mar-30 18:30N 51°55' E 004°13'0 0.4
2015-Mar-30 17:33N 51°55' E 004°12'6 6.4
2015-Mar-30 16:33N 51°59' E 004°04'9 9.0
2015-Mar-30 15:33N 51°60' E 003°49'1210.9
2015-Mar-30 14:28N 51°57' E 003°31'9 9.2
2015-Mar-30 13:28N 51°54' E 003°16'3512.0
2015-Mar-30 10:33N 51°37' E 002°26'1312.9
2015-Mar-30 09:33N 51°28' E 002°13'1111.1
2015-Mar-30 08:33N 51°17' E 002°07'1312.6
2015-Mar-30 07:34N 51°09' E 001°52'1313.2
2015-Mar-30 06:32N 51°00' E 001°36'10611.3
2015-Mar-29 21:09N 49°53' W 000°34'610.2
2015-Mar-29 20:33N 49°47' W 000°36'1111.1
2015-Mar-29 19:33N 49°38' W 000°27'1010.3
2015-Mar-29 18:33N 49°31' W 000°15'10 9.8
2015-Mar-29 17:33N 49°28' W 000°00'10 9.8
2015-Mar-29 16:33N 49°26' E 000°14'9 8.7
2015-Mar-29 15:33N 49°28' E 000°27'4 3.6
2015-Mar-29 14:33N 49°28' E 000°33'0 0.0
2015-Mar-29 13:28N 49°28' E 000°33'0 0.0
2015-Mar-29 12:25N 49°28' E 000°33'0 0.0
2015-Mar-29 11:28N 49°28' E 000°33'0 0.0
2015-Mar-29 10:31N 49°28' E 000°33'0 0.0
2015-Mar-29 09:22N 49°28' E 000°33'0 0.0
2015-Mar-29 08:31N 49°28' E 000°33'0 0.0
2015-Mar-29 07:31N 49°28' E 000°33'0 0.0
2015-Mar-29 06:28N 49°28' E 000°33'0 0.0
2015-Mar-29 05:31N 49°28' E 000°33'0 0.0
2015-Mar-29 04:31N 49°28' E 000°33'0 0.0
2015-Mar-29 03:31N 49°28' E 000°33'0 0.0
2015-Mar-29 02:31N 49°28' E 000°33'0 0.0
2015-Mar-29 01:31N 49°28' E 000°33'0 0.0
2015-Mar-29 00:31N 49°28' E 000°33'0 0.0
2015-Mar-28 23:31N 49°28' E 000°33'0 0.0
2015-Mar-28 22:31N 49°28' E 000°33'0 0.0
2015-Mar-28 21:31N 49°28' E 000°33'0 0.0
2015-Mar-28 20:31N 49°28' E 000°33'0 0.0
2015-Mar-28 19:28N 49°28' E 000°33'0 0.0
2015-Mar-28 18:31N 49°28' E 000°33'0 0.0
2015-Mar-28 17:22N 49°28' E 000°33'0 0.0
2015-Mar-28 16:31N 49°28' E 000°33'0 0.0
2015-Mar-28 15:31N 49°28' E 000°33'0 0.0
2015-Mar-28 14:31N 49°28' E 000°33'0 0.0
2015-Mar-28 13:31N 49°28' E 000°33'0 0.0
2015-Mar-28 12:28N 49°28' E 000°33'0 0.0
2015-Mar-28 11:31N 49°28' E 000°33'0 0.0
2015-Mar-28 10:28N 49°28' E 000°33'0 0.0
2015-Mar-28 09:31N 49°28' E 000°33'0 0.0
2015-Mar-28 08:28N 49°28' E 000°33'0 0.0
2015-Mar-28 07:31N 49°28' E 000°33'0 0.0
2015-Mar-28 06:31N 49°28' E 000°33'0 0.0
2015-Mar-28 05:31N 49°28' E 000°33'0 0.0
2015-Mar-28 04:31N 49°28' E 000°33'0 0.0
2015-Mar-28 03:31N 49°28' E 000°33'0 0.0
2015-Mar-28 02:31N 49°28' E 000°33'0 0.0
2015-Mar-28 01:31N 49°28' E 000°33'0 0.0
2015-Mar-28 00:32N 49°28' E 000°33'0 0.0
2015-Mar-27 23:31N 49°28' E 000°33'0 0.0
2015-Mar-27 22:31N 49°28' E 000°33'0 0.0
2015-Mar-27 21:31N 49°28' E 000°33'0 0.0
2015-Mar-27 20:31N 49°28' E 000°33'0 0.0
2015-Mar-27 19:31N 49°28' E 000°33'0 0.0
2015-Mar-27 18:25N 49°28' E 000°33'0 0.0
2015-Mar-27 17:31N 49°28' E 000°33'0 0.0
2015-Mar-27 16:28N 49°28' E 000°33'0 0.0
2015-Mar-27 15:31N 49°28' E 000°33'2 2.4
2015-Mar-27 14:33N 49°29' E 000°30'1110.7
2015-Mar-27 13:33N 49°26' E 000°14'1111.1
2015-Mar-27 12:33N 49°28' W 000°02'4 3.5
2015-Mar-27 11:28N 49°29' W 000°08'0 0.0
2015-Mar-27 10:31N 49°29' W 000°08'0 0.1
2015-Mar-27 09:31N 49°29' W 000°08'0 0.0
2015-Mar-27 08:31N 49°29' W 000°08'0 0.0
2015-Mar-27 07:31N 49°29' W 000°08'0 0.0
2015-Mar-27 06:31N 49°29' W 000°08'3 3.0
2015-Mar-27 05:33N 49°30' W 000°12'6 5.8
2015-Mar-27 04:34N 49°32' W 000°21'6 6.5
2015-Mar-27 03:33N 49°36' W 000°29'1110.6
2015-Mar-27 02:34N 49°42' W 000°42'1514.8
2015-Mar-27 01:33N 49°49' W 001°02'  
2015-Mar-22 16:29N 39°10' W 009°56'1112.3
2015-Mar-22 15:33N 38°59' W 009°56'1212.0
2015-Mar-22 14:33N 38°47' W 009°57'1111.3
2015-Mar-22 13:33N 38°36' W 009°54'1211.9
2015-Mar-22 12:33N 38°24' W 009°51'1212.4
2015-Mar-22 11:33N 38°12' W 009°47'1212.3
2015-Mar-22 10:33N 38°00' W 009°44'1212.3
2015-Mar-22 09:33N 37°48' W 009°40'1212.5
2015-Mar-22 08:33N 37°36' W 009°36'1212.3
2015-Mar-22 07:33N 37°24' W 009°33'  

Dump ship's entire track history